SWA2543 KMDW-KLGA
Flight info
| Callsign | SWA2543 |
|---|---|
| Flight time | 1h 27m |
| Altitude | 37000 |
| Route | LEWKE ZIINE Q186 WEVEL ETG MIP4 |
| Aircraft | B738/M-SDE2E3FGHIRWXY/LB1 |
Departure
| Time | 2026-05-07 05:42 |
|---|---|
| Airport | Chicago Midway International Airport (KMDW) |
Arrival
| Time | 2026-05-07 07:10 |
|---|---|
| Airport | LaGuardia Airport (KLGA) |
| Time | Latitude | Longitude | Altitude | Speed | Heading |
|---|---|---|---|---|---|
| 2026-05-07 05:12 | 41.78981 | -87.74253 | 617 ft | 0 kts | 130° |
| 2026-05-07 05:31 | 41.78981 | -87.74254 | 617 ft | 1 kts | 130° |
| 2026-05-07 05:31 | 41.78998 | -87.74274 | 631 ft | 4 kts | 158° |
| 2026-05-07 05:32 | 41.79023 | -87.74284 | 627 ft | 4 kts | 167° |
| 2026-05-07 05:32 | 41.79049 | -87.74289 | 630 ft | 4 kts | 188° |
| 2026-05-07 05:32 | 41.79067 | -87.74278 | 619 ft | 1 kts | 243° |
| 2026-05-07 05:35 | 41.79059 | -87.74300 | 630 ft | 7 kts | 243° |
| 2026-05-07 05:35 | 41.79019 | -87.74380 | 625 ft | 12 kts | 224° |
| 2026-05-07 05:35 | 41.78956 | -87.74460 | 621 ft | 13 kts | 223° |
| 2026-05-07 05:35 | 41.78893 | -87.74540 | 621 ft | 12 kts | 223° |
| 2026-05-07 05:36 | 41.78831 | -87.74618 | 630 ft | 12 kts | 223° |
| 2026-05-07 05:36 | 41.78771 | -87.74694 | 623 ft | 12 kts | 223° |
| 2026-05-07 05:36 | 41.78710 | -87.74770 | 619 ft | 12 kts | 219° |
| 2026-05-07 05:36 | 41.78629 | -87.74785 | 622 ft | 12 kts | 178° |
| 2026-05-07 05:37 | 41.78547 | -87.74783 | 624 ft | 12 kts | 179° |
| 2026-05-07 05:37 | 41.78514 | -87.74782 | 624 ft | 11 kts | 179° |
| 2026-05-07 05:37 | 41.78453 | -87.74779 | 624 ft | 11 kts | 178° |
| 2026-05-07 05:37 | 41.78376 | -87.74775 | 621 ft | 11 kts | 168° |
| 2026-05-07 05:38 | 41.78314 | -87.74709 | 614 ft | 13 kts | 133° |
| 2026-05-07 05:38 | 41.78247 | -87.74615 | 623 ft | 15 kts | 134° |
| 2026-05-07 05:38 | 41.78171 | -87.74509 | 623 ft | 16 kts | 133° |
| 2026-05-07 05:38 | 41.78086 | -87.74419 | 620 ft | 16 kts | 169° |
| 2026-05-07 05:39 | 41.78073 | -87.74417 | 620 ft | 0 kts | 175° |
| 2026-05-07 05:40 | 41.78050 | -87.74417 | 619 ft | 5 kts | 183° |
| 2026-05-07 05:41 | 41.78009 | -87.74457 | 614 ft | 9 kts | 248° |
| 2026-05-07 05:41 | 41.78031 | -87.74528 | 614 ft | 9 kts | 314° |
| 2026-05-07 05:41 | 41.78077 | -87.74591 | 614 ft | 17 kts | 314° |
| 2026-05-07 05:41 | 41.78341 | -87.74960 | 620 ft | 94 kts | 314° |
| 2026-05-07 05:42 | 41.78958 | -87.75820 | 640 ft | 157 kts | 313° |
| 2026-05-07 05:42 | 41.79792 | -87.76952 | 1158 ft | 180 kts | 314° |
| 2026-05-07 05:42 | 41.80777 | -87.78052 | 2041 ft | 187 kts | 334° |
| 2026-05-07 05:42 | 41.82049 | -87.78322 | 2785 ft | 200 kts | 3° |
| 2026-05-07 05:43 | 41.83411 | -87.77573 | 3011 ft | 226 kts | 34° |
| 2026-05-07 05:43 | 41.84294 | -87.75828 | 2998 ft | 234 kts | 73° |
| 2026-05-07 05:43 | 41.84325 | -87.73610 | 3018 ft | 241 kts | 96° |
| 2026-05-07 05:43 | 41.84060 | -87.71373 | 3010 ft | 244 kts | 98° |
| 2026-05-07 05:44 | 41.83772 | -87.69132 | 3058 ft | 247 kts | 98° |
| 2026-05-07 05:44 | 41.83473 | -87.66775 | 3315 ft | 267 kts | 98° |
| 2026-05-07 05:44 | 41.83161 | -87.64282 | 4147 ft | 275 kts | 98° |
| 2026-05-07 05:44 | 41.82847 | -87.61730 | 5071 ft | 280 kts | 97° |
| 2026-05-07 05:45 | 41.82537 | -87.59177 | 5947 ft | 285 kts | 97° |
| 2026-05-07 05:45 | 41.82217 | -87.56513 | 6785 ft | 293 kts | 97° |
| 2026-05-07 05:45 | 41.81893 | -87.53799 | 7635 ft | 297 kts | 97° |
| 2026-05-07 05:45 | 41.81566 | -87.51044 | 8494 ft | 302 kts | 97° |
| 2026-05-07 05:46 | 41.81233 | -87.48242 | 9345 ft | 307 kts | 97° |
| 2026-05-07 05:46 | 41.80895 | -87.45390 | 10181 ft | 312 kts | 97° |
| 2026-05-07 05:46 | 41.80548 | -87.42466 | 10769 ft | 324 kts | 98° |
| 2026-05-07 05:46 | 41.80188 | -87.39436 | 11344 ft | 335 kts | 98° |
| 2026-05-07 05:47 | 41.79813 | -87.36284 | 11930 ft | 347 kts | 98° |
| 2026-05-07 05:47 | 41.79426 | -87.33043 | 12520 ft | 357 kts | 98° |
| 2026-05-07 05:47 | 41.79027 | -87.29708 | 13125 ft | 366 kts | 98° |
| 2026-05-07 05:47 | 41.78625 | -87.26361 | 13713 ft | 370 kts | 98° |
| 2026-05-07 05:48 | 41.78214 | -87.22938 | 14259 ft | 373 kts | 99° |
| 2026-05-07 05:48 | 41.77798 | -87.19487 | 14816 ft | 377 kts | 99° |
| 2026-05-07 05:48 | 41.77375 | -87.15987 | 15437 ft | 383 kts | 99° |
| 2026-05-07 05:48 | 41.76947 | -87.12448 | 16167 ft | 387 kts | 99° |
| 2026-05-07 05:49 | 41.76512 | -87.08868 | 16876 ft | 391 kts | 100° |
| 2026-05-07 05:49 | 41.76153 | -87.05224 | 17541 ft | 397 kts | 93° |
| 2026-05-07 05:49 | 41.76133 | -87.01546 | 18204 ft | 402 kts | 88° |
| 2026-05-07 05:49 | 41.76202 | -86.97776 | 18800 ft | 408 kts | 88° |
| 2026-05-07 05:50 | 41.76290 | -86.93955 | 19317 ft | 414 kts | 88° |
| 2026-05-07 05:50 | 41.76374 | -86.90051 | 19801 ft | 422 kts | 89° |
| 2026-05-07 05:50 | 41.76445 | -86.86081 | 20313 ft | 429 kts | 89° |
| 2026-05-07 05:50 | 41.76506 | -86.82046 | 20849 ft | 435 kts | 89° |
| 2026-05-07 05:51 | 41.76558 | -86.77967 | 21368 ft | 441 kts | 90° |
| 2026-05-07 05:51 | 41.76605 | -86.73831 | 21871 ft | 448 kts | 90° |
| 2026-05-07 05:51 | 41.76650 | -86.69624 | 22370 ft | 454 kts | 90° |
| 2026-05-07 05:51 | 41.76694 | -86.65363 | 22864 ft | 460 kts | 90° |
| 2026-05-07 05:52 | 41.76737 | -86.61036 | 23354 ft | 466 kts | 90° |
| 2026-05-07 05:52 | 41.76778 | -86.56715 | 23783 ft | 472 kts | 90° |
| 2026-05-07 05:52 | 41.76820 | -86.52288 | 24200 ft | 478 kts | 90° |
| 2026-05-07 05:52 | 41.76860 | -86.47822 | 24648 ft | 481 kts | 91° |
| 2026-05-07 05:53 | 41.76899 | -86.43320 | 25106 ft | 484 kts | 91° |
| 2026-05-07 05:53 | 41.76937 | -86.38783 | 25542 ft | 488 kts | 91° |
| 2026-05-07 05:53 | 41.76974 | -86.34207 | 25963 ft | 492 kts | 91° |
| 2026-05-07 05:53 | 41.77009 | -86.29603 | 26372 ft | 497 kts | 91° |
| 2026-05-07 05:54 | 41.77053 | -86.24956 | 26788 ft | 500 kts | 91° |
| 2026-05-07 05:54 | 41.77106 | -86.20278 | 27187 ft | 504 kts | 91° |
| 2026-05-07 05:54 | 41.77160 | -86.15543 | 27539 ft | 509 kts | 92° |
| 2026-05-07 05:54 | 41.77213 | -86.10820 | 27732 ft | 518 kts | 92° |
| 2026-05-07 05:55 | 41.77265 | -86.05913 | 28095 ft | 522 kts | 92° |
| 2026-05-07 05:55 | 41.77313 | -86.01107 | 28553 ft | 523 kts | 92° |
| 2026-05-07 05:55 | 41.77359 | -85.96374 | 28958 ft | 526 kts | 92° |
| 2026-05-07 05:55 | 41.77403 | -85.91456 | 29318 ft | 530 kts | 92° |
| 2026-05-07 05:56 | 41.77444 | -85.86512 | 29661 ft | 534 kts | 93° |
| 2026-05-07 05:56 | 41.77484 | -85.81512 | 30021 ft | 537 kts | 93° |
| 2026-05-07 05:56 | 41.77521 | -85.76496 | 30313 ft | 540 kts | 93° |
| 2026-05-07 05:56 | 41.77558 | -85.71448 | 30586 ft | 543 kts | 93° |
| 2026-05-07 05:57 | 41.77592 | -85.66374 | 30867 ft | 546 kts | 93° |
| 2026-05-07 05:57 | 41.77624 | -85.61265 | 31138 ft | 549 kts | 93° |
| 2026-05-07 05:57 | 41.77654 | -85.56140 | 31404 ft | 551 kts | 93° |
| 2026-05-07 05:57 | 41.77682 | -85.50977 | 31667 ft | 554 kts | 93° |
| 2026-05-07 05:58 | 41.77707 | -85.45805 | 31923 ft | 557 kts | 93° |
| 2026-05-07 05:58 | 41.77731 | -85.40600 | 32149 ft | 560 kts | 93° |
| 2026-05-07 05:58 | 41.77752 | -85.35369 | 32325 ft | 564 kts | 93° |
| 2026-05-07 05:58 | 41.77771 | -85.30097 | 32583 ft | 566 kts | 93° |
| 2026-05-07 05:59 | 41.77789 | -85.24890 | 32953 ft | 565 kts | 93° |
| 2026-05-07 05:59 | 41.77804 | -85.19631 | 33356 ft | 564 kts | 93° |
| 2026-05-07 05:59 | 41.77817 | -85.14779 | 33685 ft | 564 kts | 93° |
| 2026-05-07 06:00 | 41.77829 | -85.10110 | 33948 ft | 564 kts | 93° |
| 2026-05-07 06:00 | 41.77841 | -85.04839 | 34194 ft | 565 kts | 92° |
| 2026-05-07 06:00 | 41.77850 | -84.99721 | 34460 ft | 565 kts | 92° |
| 2026-05-07 06:00 | 41.77858 | -84.94478 | 34804 ft | 563 kts | 93° |
| 2026-05-07 06:01 | 41.77863 | -84.89246 | 35180 ft | 560 kts | 93° |
| 2026-05-07 06:01 | 41.77867 | -84.84110 | 35534 ft | 557 kts | 93° |
| 2026-05-07 06:01 | 41.77867 | -84.78929 | 35836 ft | 556 kts | 93° |
| 2026-05-07 06:01 | 41.77864 | -84.73747 | 36118 ft | 555 kts | 93° |
| 2026-05-07 06:02 | 41.77859 | -84.68573 | 36410 ft | 554 kts | 93° |
| 2026-05-07 06:02 | 41.77852 | -84.63423 | 36681 ft | 552 kts | 93° |
| 2026-05-07 06:02 | 41.77843 | -84.58283 | 36969 ft | 551 kts | 93° |
| 2026-05-07 06:03 | 41.77817 | -84.48026 | 37010 ft | 556 kts | 93° |
| 2026-05-07 06:03 | 41.77782 | -84.37675 | 36994 ft | 553 kts | 93° |
| 2026-05-07 06:04 | 41.77730 | -84.27429 | 36971 ft | 548 kts | 94° |
| 2026-05-07 06:04 | 41.77665 | -84.17214 | 37001 ft | 548 kts | 94° |
| 2026-05-07 06:05 | 41.77593 | -84.06970 | 37009 ft | 550 kts | 94° |
| 2026-05-07 06:05 | 41.77515 | -83.96936 | 37008 ft | 552 kts | 94° |
| 2026-05-07 06:06 | 41.77427 | -83.86631 | 36984 ft | 554 kts | 94° |
| 2026-05-07 06:06 | 41.77328 | -83.76290 | 36996 ft | 556 kts | 94° |
| 2026-05-07 06:07 | 41.77221 | -83.65912 | 37000 ft | 558 kts | 94° |
| 2026-05-07 06:07 | 41.77097 | -83.55496 | 36995 ft | 559 kts | 95° |
| 2026-05-07 06:08 | 41.76345 | -83.45261 | 36997 ft | 555 kts | 103° |
| 2026-05-07 06:08 | 41.75233 | -83.35008 | 36993 ft | 556 kts | 103° |
| 2026-05-07 06:09 | 41.74155 | -83.24729 | 37000 ft | 557 kts | 103° |
| 2026-05-07 06:09 | 41.73148 | -83.14495 | 36969 ft | 558 kts | 103° |
| 2026-05-07 06:10 | 41.72139 | -83.04184 | 36988 ft | 558 kts | 103° |
| 2026-05-07 06:10 | 41.71132 | -82.94067 | 36986 ft | 558 kts | 103° |
| 2026-05-07 06:11 | 41.70095 | -82.83775 | 36987 ft | 558 kts | 103° |
| 2026-05-07 06:11 | 41.69047 | -82.73476 | 36969 ft | 557 kts | 103° |
| 2026-05-07 06:12 | 41.67998 | -82.63273 | 36989 ft | 557 kts | 103° |
| 2026-05-07 06:12 | 41.66927 | -82.52998 | 36994 ft | 557 kts | 103° |
| 2026-05-07 06:13 | 41.65839 | -82.42728 | 36996 ft | 557 kts | 104° |
| 2026-05-07 06:13 | 41.64742 | -82.32458 | 36996 ft | 557 kts | 104° |
| 2026-05-07 06:14 | 41.63639 | -82.22205 | 36998 ft | 557 kts | 104° |
| 2026-05-07 06:14 | 41.62534 | -82.12012 | 37001 ft | 558 kts | 104° |
| 2026-05-07 06:15 | 41.61409 | -82.01726 | 37001 ft | 559 kts | 104° |
| 2026-05-07 06:15 | 41.60293 | -81.91600 | 36995 ft | 560 kts | 104° |
| 2026-05-07 06:16 | 41.59144 | -81.81267 | 36988 ft | 561 kts | 104° |
| 2026-05-07 06:16 | 41.58185 | -81.72699 | 37000 ft | 561 kts | 104° |
| 2026-05-07 06:17 | 41.57020 | -81.62379 | 36970 ft | 562 kts | 105° |
| 2026-05-07 06:17 | 41.55846 | -81.52067 | 37009 ft | 562 kts | 105° |
| 2026-05-07 06:18 | 41.54661 | -81.41730 | 37012 ft | 563 kts | 105° |
| 2026-05-07 06:18 | 41.53605 | -81.31326 | 37014 ft | 566 kts | 102° |
| 2026-05-07 06:19 | 41.52703 | -81.20937 | 36990 ft | 568 kts | 102° |
| 2026-05-07 06:19 | 41.51780 | -81.10484 | 37010 ft | 568 kts | 103° |
| 2026-05-07 06:20 | 41.50809 | -81.00016 | 37015 ft | 569 kts | 103° |
| 2026-05-07 06:20 | 41.49830 | -80.89701 | 36961 ft | 570 kts | 103° |
| 2026-05-07 06:21 | 41.48825 | -80.79208 | 37019 ft | 570 kts | 103° |
| 2026-05-07 06:21 | 41.47817 | -80.68752 | 37021 ft | 572 kts | 103° |
| 2026-05-07 06:22 | 41.46791 | -80.58207 | 37019 ft | 574 kts | 103° |
| 2026-05-07 06:22 | 41.45230 | -80.42339 | 37021 ft | 576 kts | 103° |
| 2026-05-07 06:23 | 41.44180 | -80.31804 | 37027 ft | 577 kts | 104° |
| 2026-05-07 06:23 | 41.43111 | -80.21173 | 37020 ft | 579 kts | 104° |
| 2026-05-07 06:24 | 41.42034 | -80.10542 | 37006 ft | 579 kts | 104° |
| 2026-05-07 06:24 | 41.40995 | -79.99943 | 36992 ft | 580 kts | 103° |
| 2026-05-07 06:25 | 41.39990 | -79.89424 | 36999 ft | 580 kts | 103° |
| 2026-05-07 06:25 | 41.38965 | -79.78835 | 36955 ft | 579 kts | 103° |
| 2026-05-07 06:26 | 41.37915 | -79.68179 | 37013 ft | 578 kts | 103° |
| 2026-05-07 06:26 | 41.36854 | -79.57557 | 37015 ft | 578 kts | 104° |
| 2026-05-07 06:27 | 41.35785 | -79.46945 | 37009 ft | 578 kts | 104° |
| 2026-05-07 06:27 | 41.34707 | -79.36332 | 36990 ft | 578 kts | 104° |
| 2026-05-07 06:28 | 41.33624 | -79.25763 | 36985 ft | 578 kts | 104° |
| 2026-05-07 06:28 | 41.32527 | -79.15166 | 36980 ft | 578 kts | 104° |
| 2026-05-07 06:29 | 41.31426 | -79.04624 | 36951 ft | 578 kts | 104° |
| 2026-05-07 06:29 | 41.30332 | -78.94233 | 36972 ft | 578 kts | 104° |
| 2026-05-07 06:30 | 41.29204 | -78.83633 | 36983 ft | 578 kts | 104° |
| 2026-05-07 06:30 | 41.28041 | -78.73043 | 37002 ft | 578 kts | 105° |
| 2026-05-07 06:31 | 41.26863 | -78.62465 | 36977 ft | 578 kts | 104° |
| 2026-05-07 06:31 | 41.25691 | -78.51954 | 36994 ft | 579 kts | 105° |
| 2026-05-07 06:32 | 41.24503 | -78.41348 | 37001 ft | 580 kts | 105° |
| 2026-05-07 06:32 | 41.23331 | -78.30737 | 36992 ft | 581 kts | 104° |
| 2026-05-07 06:33 | 41.22153 | -78.20109 | 36998 ft | 582 kts | 104° |
| 2026-05-07 06:33 | 41.20939 | -78.09465 | 36991 ft | 582 kts | 105° |
| 2026-05-07 06:34 | 41.19655 | -77.99117 | 36981 ft | 581 kts | 106° |
| 2026-05-07 06:34 | 41.18307 | -77.88529 | 36970 ft | 582 kts | 106° |
| 2026-05-07 06:35 | 41.16964 | -77.77935 | 36967 ft | 582 kts | 106° |
| 2026-05-07 06:35 | 41.15622 | -77.67336 | 36978 ft | 581 kts | 106° |
| 2026-05-07 06:36 | 41.14273 | -77.56747 | 36929 ft | 581 kts | 106° |
| 2026-05-07 06:36 | 41.12920 | -77.46230 | 36397 ft | 584 kts | 107° |
| 2026-05-07 06:37 | 41.12235 | -77.40936 | 35905 ft | 582 kts | 107° |
| 2026-05-07 06:37 | 41.11552 | -77.35667 | 35506 ft | 578 kts | 107° |
| 2026-05-07 06:37 | 41.10870 | -77.30418 | 35105 ft | 575 kts | 107° |
| 2026-05-07 06:37 | 41.10189 | -77.25201 | 34732 ft | 572 kts | 107° |
| 2026-05-07 06:38 | 41.09508 | -77.20002 | 34295 ft | 569 kts | 107° |
| 2026-05-07 06:38 | 41.08829 | -77.14853 | 33915 ft | 566 kts | 108° |
| 2026-05-07 06:38 | 41.08158 | -77.09780 | 33484 ft | 563 kts | 108° |
| 2026-05-07 06:38 | 41.07480 | -77.04668 | 33071 ft | 560 kts | 108° |
| 2026-05-07 06:39 | 41.06824 | -76.99748 | 32681 ft | 557 kts | 108° |
| 2026-05-07 06:39 | 41.06154 | -76.94732 | 32295 ft | 554 kts | 108° |
| 2026-05-07 06:39 | 41.05481 | -76.89719 | 31908 ft | 551 kts | 108° |
| 2026-05-07 06:39 | 41.04810 | -76.84731 | 31515 ft | 547 kts | 108° |
| 2026-05-07 06:40 | 41.04141 | -76.79775 | 31148 ft | 544 kts | 108° |
| 2026-05-07 06:40 | 41.03474 | -76.74851 | 30776 ft | 541 kts | 108° |
| 2026-05-07 06:40 | 41.02810 | -76.69962 | 30437 ft | 537 kts | 108° |
| 2026-05-07 06:40 | 41.02115 | -76.65125 | 30033 ft | 532 kts | 112° |
| 2026-05-07 06:41 | 41.01158 | -76.60443 | 29559 ft | 522 kts | 117° |
| 2026-05-07 06:41 | 41.00032 | -76.55902 | 29168 ft | 515 kts | 120° |
| 2026-05-07 06:41 | 40.98864 | -76.51450 | 28753 ft | 510 kts | 120° |
| 2026-05-07 06:41 | 40.97713 | -76.47020 | 28358 ft | 505 kts | 119° |
| 2026-05-07 06:42 | 40.96620 | -76.42679 | 27986 ft | 500 kts | 118° |
| 2026-05-07 06:42 | 40.95553 | -76.38317 | 27650 ft | 496 kts | 118° |
| 2026-05-07 06:42 | 40.94507 | -76.33988 | 27273 ft | 492 kts | 117° |
| 2026-05-07 06:42 | 40.93475 | -76.29699 | 26914 ft | 488 kts | 118° |
| 2026-05-07 06:43 | 40.92443 | -76.25435 | 26564 ft | 484 kts | 118° |
| 2026-05-07 06:43 | 40.91415 | -76.21208 | 26197 ft | 481 kts | 118° |
| 2026-05-07 06:43 | 40.90389 | -76.17000 | 25840 ft | 478 kts | 118° |
| 2026-05-07 06:43 | 40.89367 | -76.12819 | 25436 ft | 476 kts | 118° |
| 2026-05-07 06:44 | 40.88352 | -76.08669 | 25091 ft | 472 kts | 118° |
| 2026-05-07 06:44 | 40.87355 | -76.04602 | 24748 ft | 469 kts | 118° |
| 2026-05-07 06:44 | 40.86347 | -76.00497 | 24386 ft | 467 kts | 118° |
| 2026-05-07 06:44 | 40.85379 | -75.96561 | 24034 ft | 464 kts | 118° |
| 2026-05-07 06:45 | 40.84384 | -75.92525 | 23607 ft | 462 kts | 118° |
| 2026-05-07 06:45 | 40.83392 | -75.88507 | 23186 ft | 460 kts | 118° |
| 2026-05-07 06:45 | 40.82400 | -75.84493 | 22785 ft | 456 kts | 117° |
| 2026-05-07 06:45 | 40.81432 | -75.80578 | 22418 ft | 453 kts | 117° |
| 2026-05-07 06:46 | 40.80457 | -75.76644 | 22016 ft | 449 kts | 117° |
| 2026-05-07 06:46 | 40.79492 | -75.72755 | 21689 ft | 444 kts | 117° |
| 2026-05-07 06:46 | 40.79296 | -75.71966 | 21625 ft | 443 kts | 117° |
| 2026-05-07 06:46 | 40.78726 | -75.69679 | 21395 ft | 441 kts | 117° |
| 2026-05-07 06:47 | 40.77794 | -75.65939 | 21056 ft | 438 kts | 117° |
| 2026-05-07 06:47 | 40.76847 | -75.62142 | 20706 ft | 434 kts | 117° |
| 2026-05-07 06:47 | 40.75922 | -75.58442 | 20359 ft | 431 kts | 116° |
| 2026-05-07 06:47 | 40.74984 | -75.54699 | 20009 ft | 428 kts | 116° |
| 2026-05-07 06:48 | 40.74054 | -75.50987 | 19659 ft | 425 kts | 116° |
| 2026-05-07 06:48 | 40.73130 | -75.47308 | 19320 ft | 422 kts | 116° |
| 2026-05-07 06:48 | 40.72239 | -75.43630 | 18964 ft | 421 kts | 113° |
| 2026-05-07 06:48 | 40.71473 | -75.39906 | 18585 ft | 420 kts | 111° |
| 2026-05-07 06:49 | 40.70761 | -75.36177 | 18249 ft | 418 kts | 110° |
| 2026-05-07 06:49 | 40.70562 | -75.35123 | 18124 ft | 417 kts | 110° |
| 2026-05-07 06:49 | 40.70441 | -75.34481 | 18071 ft | 417 kts | 110° |
| 2026-05-07 06:49 | 40.69744 | -75.30835 | 17687 ft | 414 kts | 110° |
| 2026-05-07 06:50 | 40.69031 | -75.27183 | 17349 ft | 409 kts | 111° |
| 2026-05-07 06:50 | 40.68316 | -75.23579 | 17074 ft | 403 kts | 111° |
| 2026-05-07 06:50 | 40.67603 | -75.20023 | 16720 ft | 400 kts | 111° |
| 2026-05-07 06:50 | 40.66872 | -75.16507 | 16372 ft | 393 kts | 116° |
| 2026-05-07 06:51 | 40.65631 | -75.13435 | 16010 ft | 370 kts | 139° |
| 2026-05-07 06:51 | 40.63947 | -75.10973 | 15699 ft | 358 kts | 144° |
| 2026-05-07 06:51 | 40.62222 | -75.08609 | 15361 ft | 355 kts | 144° |
| 2026-05-07 06:51 | 40.60554 | -75.06291 | 15018 ft | 352 kts | 143° |
| 2026-05-07 06:52 | 40.58891 | -75.03947 | 14690 ft | 349 kts | 143° |
| 2026-05-07 06:52 | 40.57261 | -75.01588 | 14342 ft | 350 kts | 137° |
| 2026-05-07 06:52 | 40.56089 | -74.98834 | 13956 ft | 362 kts | 119° |
| 2026-05-07 06:52 | 40.55202 | -74.95756 | 13571 ft | 356 kts | 117° |
| 2026-05-07 06:53 | 40.54354 | -74.92745 | 13211 ft | 346 kts | 118° |
| 2026-05-07 06:53 | 40.53517 | -74.89818 | 12880 ft | 336 kts | 118° |
| 2026-05-07 06:53 | 40.52693 | -74.86990 | 12596 ft | 325 kts | 119° |
| 2026-05-07 06:53 | 40.51878 | -74.84244 | 12312 ft | 321 kts | 120° |
| 2026-05-07 06:54 | 40.51062 | -74.81521 | 12021 ft | 320 kts | 120° |
| 2026-05-07 06:54 | 40.50246 | -74.78805 | 11725 ft | 318 kts | 120° |
| 2026-05-07 06:54 | 40.49436 | -74.76112 | 11454 ft | 316 kts | 120° |
| 2026-05-07 06:54 | 40.48631 | -74.73434 | 11185 ft | 314 kts | 120° |
| 2026-05-07 06:55 | 40.47840 | -74.70806 | 10919 ft | 312 kts | 120° |
| 2026-05-07 06:55 | 40.47041 | -74.68155 | 10634 ft | 311 kts | 119° |
| 2026-05-07 06:55 | 40.46247 | -74.65520 | 10348 ft | 309 kts | 119° |
| 2026-05-07 06:55 | 40.45459 | -74.62906 | 10154 ft | 305 kts | 119° |
| 2026-05-07 06:56 | 40.44687 | -74.60343 | 9982 ft | 299 kts | 120° |
| 2026-05-07 06:56 | 40.43920 | -74.57807 | 9712 ft | 299 kts | 119° |
| 2026-05-07 06:56 | 40.43200 | -74.55245 | 9408 ft | 303 kts | 109° |
| 2026-05-07 06:56 | 40.43203 | -74.52443 | 9123 ft | 313 kts | 79° |
| 2026-05-07 06:57 | 40.43854 | -74.49715 | 8881 ft | 312 kts | 72° |
| 2026-05-07 06:57 | 40.44585 | -74.47070 | 8599 ft | 312 kts | 71° |
| 2026-05-07 06:57 | 40.45337 | -74.44396 | 8336 ft | 311 kts | 71° |
| 2026-05-07 06:57 | 40.46082 | -74.41728 | 8068 ft | 310 kts | 71° |
| 2026-05-07 06:58 | 40.46815 | -74.39070 | 7791 ft | 309 kts | 71° |
| 2026-05-07 06:58 | 40.47540 | -74.36410 | 7525 ft | 308 kts | 71° |
| 2026-05-07 06:58 | 40.48250 | -74.33791 | 7263 ft | 307 kts | 72° |
| 2026-05-07 06:58 | 40.48962 | -74.31148 | 7005 ft | 306 kts | 71° |
| 2026-05-07 06:59 | 40.49675 | -74.28492 | 6695 ft | 307 kts | 71° |
| 2026-05-07 06:59 | 40.50384 | -74.25849 | 6423 ft | 306 kts | 71° |
| 2026-05-07 06:59 | 40.51093 | -74.23198 | 6070 ft | 309 kts | 70° |
| 2026-05-07 06:59 | 40.51802 | -74.20543 | 5795 ft | 307 kts | 70° |
| 2026-05-07 07:00 | 40.52509 | -74.17895 | 5510 ft | 305 kts | 70° |
| 2026-05-07 07:00 | 40.53209 | -74.15270 | 5252 ft | 303 kts | 70° |
| 2026-05-07 07:00 | 40.53902 | -74.12667 | 5000 ft | 300 kts | 69° |
| 2026-05-07 07:00 | 40.54587 | -74.10088 | 4810 ft | 295 kts | 69° |
| 2026-05-07 07:01 | 40.55265 | -74.07613 | 4691 ft | 286 kts | 63° |
| 2026-05-07 07:01 | 40.56411 | -74.05595 | 4592 ft | 269 kts | 36° |
| 2026-05-07 07:01 | 40.57886 | -74.04185 | 4483 ft | 257 kts | 27° |
| 2026-05-07 07:01 | 40.59377 | -74.02953 | 4379 ft | 249 kts | 26° |
| 2026-05-07 07:02 | 40.60834 | -74.01749 | 4203 ft | 246 kts | 26° |
| 2026-05-07 07:02 | 40.62272 | -74.00549 | 3993 ft | 244 kts | 27° |
| 2026-05-07 07:02 | 40.63653 | -73.99391 | 3775 ft | 242 kts | 27° |
| 2026-05-07 07:02 | 40.65046 | -73.98214 | 3799 ft | 235 kts | 27° |
| 2026-05-07 07:03 | 40.66414 | -73.97055 | 3768 ft | 237 kts | 28° |
| 2026-05-07 07:03 | 40.67801 | -73.95862 | 3593 ft | 237 kts | 28° |
| 2026-05-07 07:03 | 40.69155 | -73.94692 | 3373 ft | 235 kts | 28° |
| 2026-05-07 07:03 | 40.70417 | -73.93331 | 3137 ft | 238 kts | 43° |
| 2026-05-07 07:04 | 40.71506 | -73.91703 | 2920 ft | 237 kts | 49° |
| 2026-05-07 07:04 | 40.72159 | -73.89711 | 2673 ft | 240 kts | 75° |
| 2026-05-07 07:04 | 40.72501 | -73.87575 | 2489 ft | 236 kts | 74° |
| 2026-05-07 07:04 | 40.72860 | -73.85531 | 2311 ft | 226 kts | 69° |
| 2026-05-07 07:05 | 40.73379 | -73.83620 | 2101 ft | 224 kts | 76° |
| 2026-05-07 07:05 | 40.73151 | -73.81620 | 2016 ft | 221 kts | 117° |
| 2026-05-07 07:05 | 40.72591 | -73.80498 | 2015 ft | 212 kts | 123° |
| 2026-05-07 07:05 | 40.71516 | -73.78479 | 2004 ft | 195 kts | 123° |
| 2026-05-07 07:06 | 40.70998 | -73.77508 | 2021 ft | 194 kts | 123° |
| 2026-05-07 07:06 | 40.70234 | -73.76042 | 2013 ft | 193 kts | 115° |
| 2026-05-07 07:06 | 40.70063 | -73.74400 | 2017 ft | 176 kts | 64° |
| 2026-05-07 07:06 | 40.70830 | -73.73326 | 2012 ft | 159 kts | 11° |
| 2026-05-07 07:07 | 40.71862 | -73.73572 | 2028 ft | 158 kts | 319° |
| 2026-05-07 07:07 | 40.72297 | -73.74879 | 2008 ft | 165 kts | 276° |
| 2026-05-07 07:07 | 40.72469 | -73.76355 | 1752 ft | 161 kts | 304° |
| 2026-05-07 07:07 | 40.73168 | -73.77431 | 1685 ft | 154 kts | 309° |
| 2026-05-07 07:08 | 40.73763 | -73.78626 | 1499 ft | 155 kts | 306° |
| 2026-05-07 07:08 | 40.74327 | -73.79794 | 1273 ft | 147 kts | 306° |
| 2026-05-07 07:08 | 40.74860 | -73.80892 | 1064 ft | 140 kts | 305° |
| 2026-05-07 07:08 | 40.75383 | -73.81961 | 817 ft | 137 kts | 305° |
| 2026-05-07 07:09 | 40.75895 | -73.83015 | 609 ft | 136 kts | 304° |
| 2026-05-07 07:09 | 40.76390 | -73.84037 | 410 ft | 132 kts | 303° |
| 2026-05-07 07:09 | 40.76876 | -73.85039 | 196 ft | 131 kts | 304° |
| 2026-05-07 07:09 | 40.77363 | -73.86043 | 27 ft | 122 kts | 304° |
| 2026-05-07 07:10 | 40.77751 | -73.86845 | 13 ft | 92 kts | 302° |
| 2026-05-07 07:10 | 40.77981 | -73.87333 | 14 ft | 45 kts | 301° |
| 2026-05-07 07:10 | 40.78118 | -73.87620 | 14 ft | 22 kts | 290° |
| 2026-05-07 07:10 | 40.78080 | -73.87757 | 20 ft | 13 kts | 169° |